Andrews, South Carolina
Current Conditions -  °F | °C
As of 12:55 AM on Sunday 23 Nov 2014 (Local Time) from KCKI Reporting Station
Overcast Overcast  
Wind Chill: 10°   Ceiling: 11000
Heat Index: 10°   Visibility: 10mi
Dew Point: 10°   Wind: 0mph
Humidity: 100%   Direction: NA
Pressure: 30.26"   Gusts: NA
Location:  33.45°N, 79.56°W
Report Text: KCKI 230555Z AUTO 00000KT 10SM OVC110 10/10 A3026 RMK AO2
Loading
Personal Weather Stations






























Interactive Weather Map New forecast layout! Learn more

10-Day Weather Forecast

Advertisements
Track Severe Weather on mobile